Tiempo atmosférico en la estación meteorológica de Manilva, Málaga (140 m.)



Fecha
DESCASC
Temp. máxima en grados centígrados (hora)
DESCASC
Temp. mínima en grados centígrados (hora)
DESCASC
Temp. media en grados centígrados
DESCASC
Racha de viento máxima en m/sg (hora)
DESCASC
Velocidad máxima media en intervalos de 10 minutos(hora)
DESCASC
Precipitaciones diarias en mm
DESCASC
Precipitaciones de 00:00 a 06:00 en mm
DESCASC
Precipitaciones de 06:00 a 12:00 en mm
DESCASC
Precipitaciones de 12:00 a 18:00 en mm
DESCASC
Precipitaciones de 18:00 a 24:00 en mm
DESCASC
22-08-2019 25.9 (16:00) 23 (07:50) 24.4 13.61 (13:00) 8.61 (13:10) 0 0 0 0 0
21-08-2019 27.2 (15:10) 23.5 (00:00) 25.4 11.94 (02:20) 7.5 (02:50) 0 0 0 0 0
20-08-2019 28.6 (17:20) 21.6 (07:50) 25.1 12.22 (00:30) 8.06 (01:00) 0 0 0 0 0
19-08-2019 35.5 (16:00) 22.3 (08:20) 28.9 12.78 (20:50) 9.17 (09:30) 0 0 0 0 0
18-08-2019 34.5 (16:30) 20.9 (00:00) 27.7 12.78 (18:00) 9.17 (21:00) 0 0 0 0 0
17-08-2019 27.8 (16:50) 19.6 (00:00) 23.7 5.28 (15:50) 3.06 (14:40) 0 0 0 0 0
16-08-2019 28.2 (18:20) 20.3 (00:00) 24.3 6.39 (13:20) 4.17 (13:20) 0 0 0 0 0
15-08-2019 27.7 (18:40) 20.5 (00:00) 24.1 6.11 (16:00) 4.17 (15:40) 0 0 0 0 0
14-08-2019 27 (18:00) 22.4 (00:00) 24.7 8.33 (16:00) 5 (14:20) 0 0 0 0 0
13-08-2019 28.1 (18:00) 20.7 (00:00) 24.4 8.33 (09:50) 5.56 (10:10) 0 0 0 0 0
12-08-2019 36.2 (16:00) 21.9 (00:00) 29.1 11.11 (01:30) 7.78 (01:20) 0 0 0 0 0
11-08-2019 35.4 (16:20) 23.1 (00:00) 29.3 14.17 (14:40) 8.89 (14:30) 0 0 0 0 0
10-08-2019 37.7 (16:40) 23.3 (00:00) 30.5 14.72 (00:50) 10.83 (01:30) 0 0 0 0 0
09-08-2019 36.3 (17:20) 21.8 (00:00) 29 13.89 (13:20) 10 (13:30) 0 0 0 0 0
08-08-2019 35.4 (20:10) 24.9 (00:00) 30.2 12.78 (01:00) 8.89 (00:10) 0 0 0 0 0
07-08-2019 37.3 (18:10) 22.3 (00:00) 29.8 13.33 (16:20) 9.17 (23:00) 0 0 0 0 0
06-08-2019 36.1 (18:40) 21.6 (00:00) 28.8 10.83 (23:30) 7.22 (23:59) 0 0 0 0 0
05-08-2019 32.1 (19:40) 21.3 (00:00) 26.7 8.89 (23:10) 5.83 (23:59) 0 0 0 0 0
04-08-2019 33 (16:30) 21.6 (00:00) 27.3 8.06 (08:50) 5.56 (08:50) 0 0 0 0 0
03-08-2019 29.3 (18:50) 20.2 (00:00) 24.8 5.83 (14:50) 3.89 (11:20) 0 0 0 0 0
02-08-2019 30.7 (11:50) 20.8 (00:00) 25.8 8.89 (10:40) 6.39 (10:40) 0 0 0 0 0
01-08-2019 29.6 (19:00) 23.3 (00:00) 26.4 8.06 (15:30) 4.44 (15:30) 0 0 0 0 0
31-07-2019 27.7 (17:10) 21.4 (00:00) 24.6 11.67 (12:50) 7.78 (12:20) 0 0 0 0 0
30-07-2019 31.1 (11:30) 24 (00:00) 27.6 9.17 (00:30) 6.67 (03:30) 0 0 0 0 0
29-07-2019 34.4 (18:30) 20.1 (00:00) 27.3 12.5 (21:00) 8.61 (04:10) 0 0 0 0 0
28-07-2019 30.3 (18:20) 18.8 (00:00) 24.5 12.22 (17:00) 8.33 (10:50) 0 0 0 0 0
27-07-2019 28.2 (15:10) 19.1 (00:00) 23.7 15.28 (17:00) 10 (10:20) 0 0 0 0 0
26-07-2019 31.4 (16:10) 20.1 (00:00) 25.8 13.61 (10:30) 9.17 (15:50) 0 0 0 0 0

Gráficas

Temp. máximas Temp. mínimas Temp. medias Precipitaciones Rachas de viento máximas Velocidades máximas media en intervalos de 10 minutos

Datos horarios

Fecha y hora oficial Temperatura (ºC) Velocidad del viento (km/h) Dirección del viento Racha (km/h) Dirección de racha Precipitación (mm) Presión (hPa) Tendencia (hPa) Humedad (%)
2019-08-24 23:00:00 23.1 15 Sudeste 23 Sudeste 0 -- -- 76
2019-08-24 22:00:00 23.1 14 Sudeste 26 Este 0 -- -- 81
2019-08-24 21:00:00 23.5 13 Sudeste 24 Sudeste 0 -- -- 81
2019-08-24 20:00:00 24.8 13 Sudeste 26 Este 0 -- -- 77
2019-08-24 19:00:00 25.6 15 Sudeste 31 Este 0 -- -- 73
2019-08-24 18:00:00 25.9 16 Sudeste 31 Este 0 -- -- 74
2019-08-24 17:00:00 26.2 16 Sudeste 33 Sudeste 0 -- -- 72
2019-08-24 16:00:00 26.3 17 Sudeste 34 Este 0 -- -- 72
2019-08-24 15:00:00 26 19 Sudeste 36 Sudeste 0 -- -- 73
2019-08-24 14:00:00 26.5 20 Sudeste 35 Sudeste 0 -- -- 68
2019-08-24 13:00:00 25.5 22 Sudeste 38 Sudeste 0 -- -- 72
2019-08-24 12:00:00 25.1 21 Sudeste 39 Este 0 -- -- 74
2019-08-24 11:00:00 24.8 24 Sudeste 37 Este 0 -- -- 73
2019-08-24 10:00:00 24.5 18 Sudeste 30 Sudeste 0 -- -- 72
2019-08-24 09:00:00 24 17 Sudeste 24 Este 0 -- -- 65
2019-08-24 08:00:00 22.6 14 Sudeste 24 Este 0 -- -- 69
2019-08-24 07:00:00 23 15 Sudeste 27 Este 0 -- -- 64
2019-08-24 06:00:00 23.4 15 Sudeste 25 Sudeste 0 -- -- 59
2019-08-24 05:00:00 23.7 13 Sudeste 25 Este 0 -- -- 54
2019-08-24 04:00:00 24.1 12 Sudeste 24 Este 0 -- -- 48
2019-08-24 03:00:00 24 12 Sudeste 26 Sudeste 0 -- -- 47
2019-08-24 02:00:00 24.3 15 Sudeste 29 Sudeste 0 -- -- 45
2019-08-24 01:00:00 24.3 14 Sudeste 25 Sudeste 0 -- -- 42
2019-08-24 00:00:00 23.4 13 Sudeste 23 Sudeste 0 -- -- 62
2019-08-23 23:00:00 23 15 Sudeste 33 Sudeste 0 -- -- 79
2019-08-23 22:00:00 23.3 14 Sudeste 27 Este 0 -- -- 81
2019-08-23 21:00:00 23.5 16 Sudeste 30 Sudeste 0 -- -- 79
2019-08-23 20:00:00 24.4 20 Sudeste 35 Sudeste 0 -- -- 78
2019-08-23 19:00:00 25.2 22 Sudeste 42 Sudeste 0 -- -- 74
2019-08-23 18:00:00 25.7 24 Sudeste 37 Este 0 -- -- 71
2019-08-23 17:00:00 26 23 Sudeste 43 Sudeste 0 -- -- 67
2019-08-23 16:00:00 26.7 24 Sudeste 41 Este 0 -- -- 59
2019-08-23 15:00:00 26.8 22 Sudeste 40 Este 0 -- -- 59
2019-08-23 14:00:00 26.6 23 Sudeste 39 Sudeste 0 -- -- 60
2019-08-23 13:00:00 26.1 23 Sudeste 41 Sudeste 0 -- -- 61
2019-08-23 12:00:00 25.6 26 Sudeste 45 Sudeste 0 -- -- 64
2019-08-23 11:00:00 25.1 22 Sudeste 42 Este 0 -- -- 68
2019-08-23 10:00:00 24.7 21 Sudeste 42 Este 0 -- -- 72
2019-08-23 09:00:00 23.4 25 Sudeste 37 Este 0 -- -- 80
2019-08-23 08:00:00 23 20 Sudeste 39 Este 0 -- -- 82
2019-08-23 07:00:00 23 19 Sudeste 40 Sudeste 0 -- -- 82
2019-08-23 06:00:00 22.9 24 Sudeste 41 Sudeste 0 -- -- 82
2019-08-23 05:00:00 23 22 Sudeste 37 Sudeste 0 -- -- 80
2019-08-23 04:00:00 23.2 19 Sudeste 38 Este 0 -- -- 79
2019-08-23 03:00:00 23.4 24 Sudeste 39 Este 0 -- -- 76
2019-08-23 02:00:00 23.4 23 Sudeste 42 Sudeste 0 -- -- 73
2019-08-23 01:00:00 23.8 24 Sudeste 39 Sudeste 0 -- -- 72
2019-08-23 00:00:00 24 21 Sudeste 36 Este 0 -- -- 74
2019-08-22 23:00:00 23.8 19 Sudeste 39 Este 0 -- -- 76
2019-08-22 22:00:00 24.2 22 Sudeste 40 Sudeste 0 -- -- 70
2019-08-22 21:00:00 24.8 26 Sudeste 42 Sudeste 0 -- -- 65
2019-08-22 20:00:00 25.4 22 Sudeste 41 Este 0 -- -- 65
2019-08-22 19:00:00 25.6 27 Sudeste 43 Sudeste 0 -- -- 65
2019-08-22 18:00:00 25.4 28 Sudeste 45 Este 0 -- -- 74
2019-08-22 17:00:00 25.7 29 Sudeste 48 Este 0 -- -- 71
2019-08-22 16:00:00 25.9 26 Sudeste 47 Sudeste 0 -- -- 72
2019-08-22 15:00:00 25.7 27 Sudeste 47 Este 0 -- -- 72
2019-08-22 14:00:00 25.5 30 Sudeste 48 Este 0 -- -- 72
2019-08-22 13:00:00 25.2 28 Sudeste 49 Este 0 -- -- 73
2019-08-22 12:00:00 25 28 Sudeste 43 Este 0 -- -- 74
2019-08-22 11:00:00 25 26 Sudeste 41 Este 0 -- -- 72
2019-08-22 10:00:00 24.1 23 Sudeste 40 Este 0 -- -- 74
2019-08-22 09:00:00 23.9 20 Sudeste 33 Sudeste 0 -- -- 76
2019-08-22 08:00:00 23 21 Sudeste 35 Sudeste 0 -- -- 79
2019-08-22 07:00:00 23.5 20 Sudeste 32 Este 0 -- -- 78
2019-08-22 06:00:00 23.1 18 Sudeste 32 Sudeste 0 -- -- 85
2019-08-22 05:00:00 23.4 15 Sudeste 30 Sudeste 0 -- -- 85
2019-08-22 04:00:00 23.5 15 Sudeste 30 Sudeste 0 -- -- 86
2019-08-22 03:00:00 23.6 17 Sudeste 28 Este 0 -- -- 85
2019-08-22 02:00:00 23.9 16 Sudeste 31 Sudeste 0 -- -- 84
2019-08-22 01:00:00 23.7 17 Sudeste 31 Sudeste 0 -- -- 83
2019-08-22 00:00:00 23.8 15 Sudeste 33 Este 0 -- -- 83
2019-08-21 23:00:00 24.2 21 Sudeste 32 Sudeste 0 -- -- 81
2019-08-21 22:00:00 24 18 Sudeste 26 Este 0 -- -- 83
2019-08-21 21:00:00 24.5 15 Sudeste 31 Este 0 -- -- 83
2019-08-21 20:00:00 25.6 19 Sudeste 31 Sudeste 0 -- -- 78
2019-08-21 19:00:00 26.7 17 Sudeste 32 Este 0 -- -- 74
2019-08-21 18:00:00 26.6 21 Sudeste 34 Este 0 -- -- 76
2019-08-21 17:00:00 27 22 Sudeste 34 Este 0 -- -- 75
2019-08-21 16:00:00 27.1 19 Sudeste 35 Sudeste 0 -- -- 76
2019-08-21 15:00:00 27.1 22 Sudeste 37 Sudeste 0 -- -- 77
2019-08-21 14:00:00 26.6 22 Sudeste 35 Sudeste 0 -- -- 79
2019-08-21 13:00:00 26.5 22 Sudeste 37 Este 0 -- -- 78
2019-08-21 12:00:00 26.1 22 Sudeste 36 Este 0 -- -- 78
2019-08-21 11:00:00 26 22 Sudeste 34 Este 0 -- -- 79
2019-08-21 10:00:00 25.1 19 Sudeste 31 Este 0 -- -- 81
2019-08-21 09:00:00 24.7 17 Sudeste 26 Sudeste 0 -- -- 83
2019-08-21 08:00:00 23.9 14 Sudeste 23 Sudeste 0 -- -- 86
2019-08-21 07:00:00 24.1 15 Sudeste 28 Sudeste 0 -- -- 85
2019-08-21 06:00:00 24.2 17 Sudeste 31 Sudeste 0 -- -- 83
2019-08-21 05:00:00 24.2 21 Sudeste 35 Sudeste 0 -- -- 82
2019-08-21 04:00:00 24.2 19 Sudeste 38 Sudeste 0 -- -- 83
2019-08-21 03:00:00 24.1 21 Sudeste 43 Este 0 -- -- 82
2019-08-21 02:00:00 25.1 15 Sudeste 30 Sudeste 0 -- -- 69
2019-08-21 01:00:00 24.3 9 Sudeste 21 Sudeste 0 -- -- 73
2019-08-21 00:00:00 23.5 11 Sudeste 19 Este 0 -- -- 78
2019-08-20 23:00:00 24 10 Sudeste 16 Este 0 -- -- 77
2019-08-20 22:00:00 24.4 5 Este 10 Sudeste 0 -- -- 77
2019-08-20 21:00:00 25.3 4 Nordeste 9 Nordeste 0 -- -- 73
2019-08-20 20:00:00 26.6 6 Este 14 Sudeste 0 -- -- 62
2019-08-20 19:00:00 28.5 6 Este 14 Este 0 -- -- 55
2019-08-20 18:00:00 27.8 9 Sudeste 15 Sur 0 -- -- 58
2019-08-20 17:00:00 27.7 11 Sudeste 19 Sudeste 0 -- -- 58
2019-08-20 16:00:00 26.6 9 Sudeste 21 Sudeste 0 -- -- 66
2019-08-20 15:00:00 26.8 10 Sur 20 Sudeste 0 -- -- 70
2019-08-20 14:00:00 27.2 9 Sudeste 19 Sudeste 0 -- -- 68
2019-08-20 13:00:00 26.5 8 Sudeste 19 Sur 0 -- -- 70
2019-08-20 12:00:00 26.2 9 Sudeste 18 Sur 0 -- -- 72
2019-08-20 11:00:00 26.4 5 Sur 12 Sudeste 0 -- -- 73
2019-08-20 10:00:00 24.1 5 Sur 13 Sur 0 -- -- 81
2019-08-20 09:00:00 22.3 4 Sur 8 Sudeste 0 -- -- 88
2019-08-20 08:00:00 21.7 0 Calma 5 Noroeste 0 -- -- 83
2019-08-20 07:00:00 22.1 0 Calma 6 Sudeste 0 -- -- 73
2019-08-20 06:00:00 23.2 3 Noroeste 31 Noroeste 0 -- -- 50
2019-08-20 05:00:00 24 18 Noroeste 39 Noroeste 0 -- -- 42
2019-08-20 04:00:00 23.5 27 Noroeste 36 Noroeste 0 -- -- 43
2019-08-20 03:00:00 23.9 20 Noroeste 33 Noroeste 0 -- -- 46
2019-08-20 02:00:00 24.3 25 Noroeste 42 Noroeste 0 -- -- 46
2019-08-20 01:00:00 24.6 29 Noroeste 44 Noroeste 0 -- -- 47
2019-08-20 00:00:00 25.3 27 Noroeste 44 Noroeste 0 -- -- 46
2019-08-19 23:00:00 26.3 26 Noroeste 42 Noroeste 0 -- -- 42
2019-08-19 22:00:00 27.6 32 Noroeste 45 Noroeste 0 -- -- 40
2019-08-19 21:00:00 29.6 31 Noroeste 46 Noroeste 0 -- -- 38
2019-08-19 20:00:00 32.9 27 Oeste 39 Oeste 0 -- -- 36
2019-08-19 19:00:00 34.6 22 Noroeste 40 Oeste 0 -- -- 35
2019-08-19 18:00:00 34.7 27 Oeste 41 Oeste 0 -- -- 38
2019-08-19 17:00:00 34.7 29 Noroeste 45 Noroeste 0 -- -- 40
2019-08-19 16:00:00 35.5 22 Oeste 43 Oeste 0 -- -- 37
2019-08-19 15:00:00 34.9 20 Oeste 36 Sudoeste 0 -- -- 35
2019-08-19 14:00:00 34.2 17 Sudoeste 31 Sudoeste 0 -- -- 37
2019-08-19 13:00:00 33.4 15 Oeste 31 Oeste 0 -- -- 38
2019-08-19 12:00:00 31 22 Noroeste 33 Noroeste 0 -- -- 47
2019-08-19 11:00:00 28.6 27 Noroeste 36 Noroeste 0 -- -- 50
2019-08-19 10:00:00 25.6 28 Noroeste 42 Noroeste 0 -- -- 56
2019-08-19 09:00:00 23.2 27 Noroeste 37 Noroeste 0 -- -- 59
2019-08-19 08:00:00 22.4 24 Noroeste 41 Noroeste 0 -- -- 63
2019-08-19 07:00:00 23.2 29 Noroeste 37 Noroeste 0 -- -- 57
2019-08-19 06:00:00 23.8 23 Noroeste 35 Noroeste 0 -- -- 55
2019-08-19 05:00:00 24.5 24 Noroeste 35 Noroeste 0 -- -- 49
2019-08-19 04:00:00 25.1 21 Noroeste 39 Noroeste 0 -- -- 42
2019-08-19 03:00:00 24.7 26 Noroeste 41 Noroeste 0 -- -- 42
2019-08-19 02:00:00 24.4 32 Noroeste 45 Noroeste 0 -- -- 46
2019-08-19 01:00:00 25.4 28 Noroeste 42 Noroeste 0 -- -- 44
2019-08-19 00:00:00 26.1 27 Noroeste 41 Noroeste 0 -- -- 44
2019-08-18 23:00:00 27.3 26 Noroeste 44 Noroeste 0 -- -- 41
2019-08-18 22:00:00 28.2 27 Noroeste 45 Noroeste 0 -- -- 41
2019-08-18 21:00:00 29.4 33 Noroeste 46 Noroeste 0 -- -- 43
2019-08-18 20:00:00 32 30 Noroeste 42 Noroeste 0 -- -- 42
2019-08-18 19:00:00 33.7 27 Oeste 44 Oeste 0 -- -- 39
2019-08-18 18:00:00 33.7 28 Oeste 46 Oeste 0 -- -- 38
2019-08-18 17:00:00 34.2 29 Oeste 43 Oeste 0 -- -- 35
2019-08-18 16:00:00 34.3 22 Oeste 40 Oeste 0 -- -- 35
2019-08-18 15:00:00 33.7 21 Oeste 39 Noroeste 0 -- -- 37
2019-08-18 14:00:00 32.5 20 Oeste 35 Oeste 0 -- -- 41
2019-08-18 13:00:00 32.3 17 Oeste 32 Noroeste 0 -- -- 44
2019-08-18 12:00:00 31.2 11 Oeste 22 Noroeste 0 -- -- 42
2019-08-18 11:00:00 29.7 7 Noroeste 21 Noroeste 0 -- -- 37
2019-08-18 10:00:00 27.1 17 Noroeste 26 Norte 0 -- -- 42
2019-08-18 09:00:00 25.3 10 Noroeste 22 Noroeste 0 -- -- 47
2019-08-18 08:00:00 22.2 12 Noroeste 16 Noroeste 0 -- -- 58
2019-08-18 07:00:00 21.2 4 Nordeste 12 Noroeste 0 -- -- 66
2019-08-18 06:00:00 21 3 Noroeste 7 Noroeste 0 -- -- 71
2019-08-18 05:00:00 21.4 3 Norte 6 Norte 0 -- -- 74
2019-08-18 04:00:00 21.8 0 Calma 5 Noroeste 0 -- -- 65
2019-08-18 03:00:00 22.5 0 Calma 6 Norte 0 -- -- 60
2019-08-18 02:00:00 22.8 6 Nordeste 9 Nordeste 0 -- -- 62
2019-08-18 01:00:00 22.4 3 Norte 6 Noroeste 0 -- -- 68
2019-08-18 00:00:00 22.5 4 Norte 7 Norte 0 -- -- 76
2019-08-17 23:00:00 23.1 2 Norte 4 Noroeste 0 -- -- 77
2019-08-17 22:00:00 23.9 3 Noroeste 8 Nordeste 0 -- -- 73
2019-08-17 21:00:00 25.5 2 Norte 7 Nordeste 0 -- -- 69
2019-08-17 20:00:00 26.5 4 Este 13 Este 0 -- -- 67
2019-08-17 19:00:00 27.1 8 Sudeste 15 Sur 0 -- -- 65
2019-08-17 18:00:00 27.8 7 Sudeste 17 Sur 0 -- -- 63
2019-08-17 17:00:00 27.6 10 Sur 17 Sur 0 -- -- 65
2019-08-17 16:00:00 26.9 9 Sur 19 Sur 0 -- -- 68
2019-08-17 15:00:00 26.3 8 Sur 18 Sur 0 -- -- 70
2019-08-17 14:00:00 26.2 9 Sur 17 Sudeste 0 -- -- 70
2019-08-17 13:00:00 25.6 8 Sur 15 Sudeste 0 -- -- 68
2019-08-17 12:00:00 23.9 5 Sudeste 15 Sudeste 0 -- -- 78
2019-08-17 11:00:00 22.3 3 Sur 9 Sudeste 0 -- -- 88
2019-08-17 10:00:00 20.8 3 Sur 6 Sur 0 -- -- 95
2019-08-17 09:00:00 20.2 0 Calma 9 Oeste 0 -- -- 96
2019-08-17 08:00:00 19.7 4 Sudoeste 8 Sudoeste 0 -- -- 94
2019-08-17 07:00:00 20.1 0 Calma 3 Sur 0 -- -- 91
2019-08-17 06:00:00 20.6 0 Calma 4 Sur 0 -- -- 87
2019-08-17 05:00:00 21.1 0 Calma 4 Nordeste 0 -- -- 80
2019-08-17 04:00:00 21.6 0 Calma 5 Nordeste 0 -- -- 78
2019-08-17 03:00:00 22.2 4 Nordeste 5 Nordeste 0 -- -- 77
2019-08-17 02:00:00 22.6 4 Nordeste 6 Nordeste 0 -- -- 75
2019-08-17 01:00:00 22.4 0 Calma 5 Noroeste 0 -- -- 74
2019-08-17 00:00:00 22.7 3 Norte 5 Noroeste 0 -- -- 72
2019-08-16 23:00:00 23.3 4 Noroeste 6 Norte 0 -- -- 73
2019-08-16 22:00:00 24.5 2 Nordeste 4 Nordeste 0 -- -- 76
2019-08-16 21:00:00 25.9 0 Calma 7 Sur 0 -- -- 71
2019-08-16 20:00:00 27.7 5 Sur 14 Sudeste 0 -- -- 63
2019-08-16 19:00:00 28.2 6 Sur 14 Sur 0 -- -- 64
2019-08-16 18:00:00 27.9 8 Sudeste 19 Este 0 -- -- 67
2019-08-16 17:00:00 27.5 9 Sur 22 Sudeste 0 -- -- 67
2019-08-16 16:00:00 27.2 12 Sudeste 23 Sudeste 0 -- -- 68
2019-08-16 15:00:00 26.9 10 Sur 21 Sudeste 0 -- -- 69
2019-08-16 14:00:00 26.9 12 Sudeste 23 Sudeste 0 -- -- 65
2019-08-16 13:00:00 27 13 Sur 22 Sudeste 0 -- -- 59
2019-08-16 12:00:00 26.5 13 Sudeste 18 Sudeste 0 -- -- 55
2019-08-16 11:00:00 26.9 6 Sur 12 Sudeste 0 -- -- 56
2019-08-16 10:00:00 25.4 3 Sur 8 Sudeste 0 -- -- 67
2019-08-16 09:00:00 22.9 2 Este 5 Nordeste 0 -- -- 75
2019-08-16 08:00:00 20.3 3 Norte 5 Noroeste 0 -- -- 78
2019-08-16 07:00:00 20.5 2 Noroeste 4 Noroeste 0 -- -- 74
2019-08-16 06:00:00 21.4 0 Calma 5 Noroeste 0 -- -- 71
2019-08-16 05:00:00 21.9 4 Noroeste 6 Noroeste 0 -- -- 68
2019-08-16 04:00:00 22.2 3 Norte 6 Noroeste 0 -- -- 66
2019-08-16 03:00:00 22.5 3 Norte 6 Nordeste 0 -- -- 66
2019-08-16 02:00:00 22.5 4 Norte 6 Noroeste 0 -- -- 65
2019-08-16 01:00:00 22.9 4 Norte 7 Norte 0 -- -- 66
2019-08-16 00:00:00 23.2 5 Nordeste 7 Nordeste 0 -- -- 66
2019-08-15 23:00:00 23.4 4 Nordeste 6 Nordeste 0 -- -- 66
2019-08-15 22:00:00 24.1 4 Norte 9 Norte 0 -- -- 69
2019-08-15 21:00:00 25.6 0 Calma 9 Este 0 -- -- 69
2019-08-15 20:00:00 27 6 Sudeste 13 Sudeste 0 -- -- 64
2019-08-15 19:00:00 27.5 9 Sudeste 18 Sudeste 0 -- -- 63
2019-08-15 18:00:00 27.5 10 Sudeste 19 Sudeste 0 -- -- 64
2019-08-15 17:00:00 27.4 10 Sudeste 22 Sudeste 0 -- -- 68
2019-08-15 16:00:00 27.2 13 Sur 22 Sudeste 0 -- -- 69
2019-08-15 15:00:00 27.4 13 Sur 22 Sur 0 -- -- 67
2019-08-15 14:00:00 27.2 11 Sudeste 19 Sur 0 -- -- 67
2019-08-15 13:00:00 26.9 9 Sur 17 Sudeste 0 -- -- 69
2019-08-15 12:00:00 25.5 8 Sudeste 15 Sudeste 0 -- -- 74
2019-08-15 11:00:00 24.1 6 Sur 13 Sur 0 -- -- 82
2019-08-15 10:00:00 21.4 0 Calma 6 Sudeste 0 -- -- 93
2019-08-15 09:00:00 21.1 0 Calma 5 Sudoeste 0 -- -- 93
2019-08-15 08:00:00 20.6 0 Calma 4 Noroeste 0 -- -- 92
2019-08-15 07:00:00 21.1 0 Calma 4 Este 0 -- -- 91
2019-08-15 06:00:00 21 3 Nordeste 6 Norte 0 -- -- 90
2019-08-15 05:00:00 21.4 5 Norte 8 Norte 0 -- -- 92
2019-08-15 04:00:00 21.6 0 Calma 6 Norte 0 -- -- 91
2019-08-15 03:00:00 21.7 3 Nordeste 5 Nordeste 0 -- -- 90
2019-08-15 02:00:00 21.9 3 Norte 4 Nordeste 0 -- -- 89
2019-08-15 01:00:00 22.2 0 Calma 5 Nordeste 0 -- -- 88
2019-08-15 00:00:00 22.6 0 Calma 4 Sur 0 -- -- 88
2019-08-14 23:00:00 23.1 4 Nordeste 5 Nordeste 0 -- -- 87
2019-08-14 22:00:00 23.5 0 Calma 8 Este 0 -- -- 85
2019-08-14 21:00:00 24.4 5 Este 12 Sudeste 0 -- -- 81
2019-08-14 20:00:00 26.3 8 Sudeste 17 Sudeste 0 -- -- 74
2019-08-14 19:00:00 26.7 9 Sudeste 21 Sudeste 0 -- -- 73
2019-08-14 18:00:00 27 11 Sudeste 26 Sudeste 0 -- -- 73
2019-08-14 17:00:00 26.8 14 Sudeste 27 Sudeste 0 -- -- 75
2019-08-14 16:00:00 26.6 17 Sudeste 30 Sudeste 0 -- -- 75
2019-08-14 15:00:00 26 16 Sudeste 29 Sudeste 0 -- -- 79
2019-08-14 14:00:00 25.9 18 Sudeste 29 Sudeste 0 -- -- 79
2019-08-14 13:00:00 26.1 12 Sudeste 28 Sudeste 0 -- -- 78
2019-08-14 12:00:00 24.9 16 Sudeste 26 Este 0 -- -- 85
2019-08-14 11:00:00 24.8 15 Sudeste 28 Este 0 -- -- 87
2019-08-14 10:00:00 23.5 17 Sudeste 27 Sudeste 0 -- -- 96
2019-08-14 09:00:00 22.9 14 Sudeste 25 Sudeste 0 -- -- 97
2019-08-14 08:00:00 22.5 13 Sudeste 20 Sudeste 0 -- -- 96
2019-08-14 07:00:00 22.7 10 Sudeste 22 Este 0 -- -- 95
2019-08-14 06:00:00 22.8 15 Sudeste 24 Sudeste 0 -- -- 94
2019-08-14 05:00:00 22.9 11 Sudeste 22 Sudeste 0 -- -- 94
2019-08-14 04:00:00 22.7 13 Sudeste 26 Este 0 -- -- 92
2019-08-14 03:00:00 23.5 14 Sudeste 27 Sudeste 0 -- -- 88
2019-08-14 02:00:00 23.8 10 Sudeste 25 Sudeste 0 -- -- 85
2019-08-14 01:00:00 23.7 8 Este 19 Este 0 -- -- 84
2019-08-14 00:00:00 23.9 10 Sudeste 20 Sudeste 0 -- -- 84
2019-08-13 23:00:00 24.1 10 Sudeste 16 Sudeste 0 -- -- 84
2019-08-13 22:00:00 24.1 8 Sudeste 14 Sudeste 0 -- -- 83
2019-08-13 21:00:00 24.7 7 Este 17 Sudeste 0 -- -- 81
2019-08-13 20:00:00 26.1 13 Sudeste 22 Sudeste 0 -- -- 76
2019-08-13 19:00:00 27.3 13 Sudeste 24 Sudeste 0 -- -- 72
2019-08-13 18:00:00 28.1 10 Sudeste 20 Este 0 -- -- 71
2019-08-13 17:00:00 27.7 13 Sudeste 24 Sudeste 0 -- -- 71
2019-08-13 16:00:00 27.9 14 Sudeste 22 Sudeste 0 -- -- 70
2019-08-13 15:00:00 27.8 14 Sudeste 21 Sudeste 0 -- -- 70
2019-08-13 14:00:00 27.2 11 Sudeste 22 Sudeste 0 -- -- 72
2019-08-13 13:00:00 27.1 12 Sudeste 23 Sudeste 0 -- -- 72
2019-08-13 12:00:00 25.9 14 Sudeste 26 Sudeste 0 -- -- 76
2019-08-13 11:00:00 25.6 16 Sudeste 30 Sudeste 0 -- -- 76
2019-08-13 10:00:00 25.4 16 Sudeste 30 Sudeste 0 -- -- 75
2019-08-13 09:00:00 24.3 8 Este 22 Este 0 -- -- 78
2019-08-13 08:00:00 22.7 6 Este 20 Este 0 -- -- 77
2019-08-13 07:00:00 22.9 7 Sudeste 17 Sudeste 0 -- -- 57
2019-08-13 06:00:00 22.2 2 Nordeste 8 Nordeste 0 -- -- 48
2019-08-13 05:00:00 22.4 3 Norte 7 Este 0 -- -- 47
2019-08-13 04:00:00 22.4 4 Nordeste 10 Norte 0 -- -- 46
2019-08-13 03:00:00 20.8 4 Noroeste 9 Noroeste 0 -- -- 58
2019-08-13 02:00:00 21 4 Norte 14 Sudeste 0 -- -- 63
2019-08-13 01:00:00 22.6 5 Este 13 Este 0 -- -- 52
2019-08-13 00:00:00 23.2 4 Norte 15 Noroeste 0 -- -- 53
2019-08-12 23:00:00 27.5 13 Noroeste 25 Noroeste 0 -- -- 22
2019-08-12 22:00:00 28.3 15 Noroeste 22 Noroeste 0 -- -- 22
2019-08-12 21:00:00 31.7 7 Noroeste 12 Noroeste 0 -- -- 20
2019-08-12 20:00:00 32.2 5 Nordeste 12 Este 0 -- -- 33
2019-08-12 19:00:00 32.9 7 Nordeste 17 Sur 0 -- -- 32
2019-08-12 18:00:00 34.6 13 Sur 22 Sur 0 -- -- 23
2019-08-12 17:00:00 34.9 15 Sur 28 Sudeste 0 -- -- 21
2019-08-12 16:00:00 36.2 9 Noroeste 25 Norte 0 -- -- 17
2019-08-12 15:00:00 33.7 10 Oeste 22 Noroeste 0 -- -- 19
2019-08-12 14:00:00 31.5 5 Este 15 Nordeste 0 -- -- 22
2019-08-12 13:00:00 29 6 Sur 12 Sudeste 0 -- -- 28
2019-08-12 12:00:00 28.5 3 Sudoeste 10 Noroeste 0 -- -- 26
2019-08-12 11:00:00 27.7 4 Sudeste 20 Noroeste 0 -- -- 27
2019-08-12 10:00:00 24.6 17 Noroeste 25 Noroeste 0 -- -- 33
2019-08-12 09:00:00 22.7 16 Noroeste 30 Noroeste 0 -- -- 35
2019-08-12 08:00:00 22 19 Noroeste 29 Noroeste 0 -- -- 36
2019-08-12 07:00:00 22 21 Noroeste 32 Noroeste 0 -- -- 37
2019-08-12 06:00:00 22.5 19 Noroeste 31 Noroeste 0 -- -- 37
2019-08-12 05:00:00 23.9 19 Noroeste 30 Noroeste 0 -- -- 34
2019-08-12 04:00:00 24 14 Noroeste 31 Noroeste 0 -- -- 35
2019-08-12 03:00:00 24 24 Noroeste 36 Noroeste 0 -- -- 38
2019-08-12 02:00:00 23.8 23 Noroeste 40 Noroeste 0 -- -- 41
2019-08-12 01:00:00 25.1 21 Noroeste 35 Noroeste 0 -- -- 37
2019-08-12 00:00:00 25.9 23 Noroeste 38 Noroeste 0 -- -- 34
2019-08-11 23:00:00 26.8 26 Noroeste 42 Noroeste 0 -- -- 33
2019-08-11 22:00:00 27.4 24 Noroeste 44 Noroeste 0 -- -- 33
2019-08-11 21:00:00 29.3 28 Norte 45 Norte 0 -- -- 30
2019-08-11 20:00:00 32.9 18 Norte 44 Noroeste 0 -- -- 21
2019-08-11 19:00:00 33.9 27 Noroeste 47 Noroeste 0 -- -- 21
2019-08-11 18:00:00 35.1 28 Noroeste 47 Noroeste 0 -- -- 20
2019-08-11 17:00:00 35.3 26 Norte 45 Noroeste 0 -- -- 19
2019-08-11 16:00:00 35.2 25 Noroeste 48 Noroeste 0 -- -- 17
2019-08-11 15:00:00 34.4 26 Noroeste 51 Noroeste 0 -- -- 21
2019-08-11 14:00:00 32.5 29 Noroeste 45 Oeste 0 -- -- 26
2019-08-11 13:00:00 31 28 Oeste 45 Oeste 0 -- -- 26
2019-08-11 12:00:00 30.6 23 Noroeste 36 Noroeste 0 -- -- 28
2019-08-11 11:00:00 29.1 18 Oeste 31 Oeste 0 -- -- 33
2019-08-11 10:00:00 26.4 16 Noroeste 29 Noroeste 0 -- -- 40
2019-08-11 09:00:00 24.4 17 Noroeste 31 Noroeste 0 -- -- 44
2019-08-11 08:00:00 23.1 19 Noroeste 30 Noroeste 0 -- -- 48
2019-08-11 07:00:00 23.2 22 Noroeste 32 Noroeste 0 -- -- 49
2019-08-11 06:00:00 24 20 Noroeste 31 Noroeste 0 -- -- 46
2019-08-11 05:00:00 24.5 15 Noroeste 31 Noroeste 0 -- -- 45
2019-08-11 04:00:00 25.1 15 Noroeste 35 Noroeste 0 -- -- 42
2019-08-11 03:00:00 25.5 26 Noroeste 45 Noroeste 0 -- -- 40
2019-08-11 02:00:00 25.4 29 Noroeste 43 Noroeste 0 -- -- 43
2019-08-11 01:00:00 24.7 23 Noroeste 43 Noroeste 0 -- -- 52
2019-08-11 00:00:00 25.9 31 Noroeste 46 Noroeste 0 -- -- 53
2019-08-10 23:00:00 27.2 31 Noroeste 47 Oeste 0 -- -- 51
2019-08-10 22:00:00 28.6 31 Noroeste 46 Noroeste 0 -- -- 48
2019-08-10 21:00:00 31 23 Noroeste 40 Oeste 0 -- -- 45
2019-08-10 20:00:00 34.2 26 Noroeste 36 Oeste 0 -- -- 40
2019-08-10 19:00:00 36.2 21 Oeste 38 Oeste 0 -- -- 38
2019-08-10 18:00:00 37.2 22 Noroeste 36 Oeste 0 -- -- 36
2019-08-10 17:00:00 37.6 19 Oeste 36 Oeste 0 -- -- 31
2019-08-10 16:00:00 37 20 Oeste 34 Noroeste 0 -- -- 33
2019-08-10 15:00:00 36.2 19 Noroeste 33 Noroeste 0 -- -- 35
2019-08-10 14:00:00 33.4 4 Noroeste 21 Este 0 -- -- 42
2019-08-10 13:00:00 31.5 13 Este 21 Este 0 -- -- 44
2019-08-10 12:00:00 31.6 10 Este 22 Noroeste 0 -- -- 46
2019-08-10 11:00:00 31.2 16 Norte 27 Noroeste 0 -- -- 47
2019-08-10 10:00:00 28 20 Noroeste 34 Noroeste 0 -- -- 59
2019-08-10 09:00:00 25.8 25 Noroeste 39 Noroeste 0 -- -- 66
2019-08-10 08:00:00 24.6 24 Noroeste 37 Noroeste 0 -- -- 70
2019-08-10 07:00:00 24.5 20 Noroeste 33 Noroeste 0 -- -- 65
2019-08-10 06:00:00 23.8 25 Noroeste 41 Noroeste 0 -- -- 73
2019-08-10 05:00:00 23.6 26 Noroeste 42 Noroeste 0 -- -- 78
2019-08-10 04:00:00 24 29 Noroeste 44 Noroeste 0 -- -- 77
2019-08-10 03:00:00 24.1 31 Noroeste 53 Noroeste 0 -- -- 76
2019-08-10 02:00:00 24.3 37 Noroeste 53 Noroeste 0 -- -- 75
2019-08-10 01:00:00 24.8 37 Noroeste 53 Oeste 0 -- -- 72
2019-08-10 00:00:00 25.3 34 Noroeste 50 Noroeste 0 -- -- 70
2019-08-09 23:00:00 26.3 34 Noroeste 46 Noroeste 0 -- -- 65
2019-08-09 22:00:00 27.8 27 Noroeste 44 Oeste 0 -- -- 57
2019-08-09 21:00:00 30.1 32 Noroeste 45 Oeste 0 -- -- 47
2019-08-09 20:00:00 32.7 32 Noroeste 47 Oeste 0 -- -- 39
2019-08-09 19:00:00 34.5 29 Noroeste 43 Noroeste 0 -- -- 36
2019-08-09 18:00:00 35.5 27 Oeste 40 Oeste 0 -- -- 36
2019-08-09 17:00:00 36 25 Noroeste 44 Noroeste 0 -- -- 31
2019-08-09 16:00:00 35.6 27 Noroeste 46 Oeste 0 -- -- 31
2019-08-09 15:00:00 35 30 Noroeste 48 Oeste 0 -- -- 31
2019-08-09 14:00:00 34.1 31 Noroeste 50 Noroeste 0 -- -- 34
2019-08-09 13:00:00 32.6 32 Noroeste 47 Oeste 0 -- -- 37
2019-08-09 12:00:00 32.1 25 Noroeste 39 Noroeste 0 -- -- 32
2019-08-09 11:00:00 29.3 23 Noroeste 32 Noroeste 0 -- -- 51
2019-08-09 10:00:00 25.2 23 Noroeste 39 Noroeste 0 -- -- 59
2019-08-09 09:00:00 23.2 24 Noroeste 40 Noroeste 0 -- -- 54
2019-08-09 08:00:00 22.1 30 Noroeste 40 Noroeste 0 -- -- 67
2019-08-09 07:00:00 22 28 Noroeste 40 Noroeste 0 -- -- 66
2019-08-09 06:00:00 22.6 27 Noroeste 36 Noroeste 0 -- -- 63
2019-08-09 05:00:00 22.9 27 Noroeste 35 Noroeste 0 -- -- 58
2019-08-09 04:00:00 23.5 28 Noroeste 38 Noroeste 0 -- -- 52
2019-08-09 03:00:00 24.5 26 Noroeste 42 Noroeste 0 -- -- 47
2019-08-09 02:00:00 25.2 30 Noroeste 39 Noroeste 0 -- -- 47
2019-08-09 01:00:00 25.8 25 Noroeste 40 Noroeste 0 -- -- 50
2019-08-09 00:00:00 27.1 29 Noroeste 38 Oeste 0 -- -- 46
2019-08-08 23:00:00 28.4 19 Noroeste 32 Noroeste 0 -- -- 43
2019-08-08 22:00:00 29.8 22 Noroeste 32 Oeste 0 -- -- 41
2019-08-08 21:00:00 33 22 Oeste 28 Oeste 0 -- -- 37
2019-08-08 20:00:00 35.2 12 Sudoeste 21 Sudoeste 0 -- -- 34
2019-08-08 19:00:00 34.1 7 Este 14 Este 0 -- -- 36
2019-08-08 18:00:00 34.7 7 Este 15 Este 0 -- -- 33
2019-08-08 17:00:00 33.6 10 Este 16 Este 0 -- -- 35
2019-08-08 16:00:00 33.7 11 Este 17 Sudeste 0 -- -- 33
2019-08-08 15:00:00 34.7 8 Sudeste 19 Sudeste 0 -- -- 32
2019-08-08 14:00:00 34.7 10 Sudeste 18 Sur 0 -- -- 30
2019-08-08 13:00:00 34.1 9 Sudeste 13 Sudeste 0 -- -- 30
2019-08-08 12:00:00 32.6 5 Sudeste 15 Sur 0 -- -- 31
2019-08-08 11:00:00 31.6 3 Nordeste 10 Noroeste 0 -- -- 32
2019-08-08 10:00:00 28.4 9 Noroeste 25 Noroeste 0 -- -- 40
2019-08-08 09:00:00 26 18 Noroeste 32 Noroeste 0 -- -- 44
2019-08-08 08:00:00 24.9 26 Noroeste 36 Noroeste 0 -- -- 46
2019-08-08 07:00:00 25.4 24 Noroeste 39 Noroeste 0 -- -- 44
2019-08-08 06:00:00 25.1 22 Noroeste 34 Noroeste 0 -- -- 47
2019-08-08 05:00:00 25.1 25 Noroeste 38 Noroeste 0 -- -- 49
2019-08-08 04:00:00 25.2 26 Noroeste 39 Noroeste 0 -- -- 52
2019-08-08 03:00:00 25.2 26 Noroeste 39 Noroeste 0 -- -- 55
2019-08-08 02:00:00 25.8 27 Noroeste 43 Noroeste 0 -- -- 52
2019-08-08 01:00:00 26.8 29 Noroeste 46 Noroeste 0 -- -- 48
2019-08-08 00:00:00 27.1 32 Noroeste 45 Noroeste 0 -- -- 49
2019-08-07 23:00:00 28.2 33 Noroeste 46 Noroeste 0 -- -- 47
2019-08-07 22:00:00 29.5 28 Noroeste 38 Oeste 0 -- -- 42
2019-08-07 21:00:00 31.4 27 Noroeste 39 Noroeste 0 -- -- 39
2019-08-07 20:00:00 33.4 24 Noroeste 38 Noroeste 0 -- -- 36
2019-08-07 19:00:00 35.2 19 Noroeste 41 Norte 0 -- -- 34
2019-08-07 18:00:00 37 26 Noroeste 40 Oeste 0 -- -- 28
2019-08-07 17:00:00 36.9 30 Oeste 48 Oeste 0 -- -- 25
2019-08-07 16:00:00 36.7 27 Noroeste 44 Oeste 0 -- -- 26
2019-08-07 15:00:00 36.3 24 Noroeste 44 Oeste 0 -- -- 27
2019-08-07 14:00:00 35.2 22 Noroeste 40 Noroeste 0 -- -- 28
2019-08-07 13:00:00 33.5 15 Oeste 31 Oeste 0 -- -- 29
2019-08-07 12:00:00 31 21 Noroeste 36 Oeste 0 -- -- 39
2019-08-07 11:00:00 27.1 27 Noroeste 38 Noroeste 0 -- -- 55
2019-08-07 10:00:00 24.8 23 Noroeste 39 Noroeste 0 -- -- 58
2019-08-07 09:00:00 23.2 12 Noroeste 23 Oeste 0 -- -- 56
2019-08-07 08:00:00 22.5 15 Noroeste 31 Noroeste 0 -- -- 48
2019-08-07 07:00:00 23.4 24 Noroeste 32 Noroeste 0 -- -- 46
2019-08-07 06:00:00 23.7 22 Noroeste 37 Noroeste 0 -- -- 41
2019-08-07 05:00:00 24.6 26 Noroeste 40 Noroeste 0 -- -- 36
2019-08-07 04:00:00 24.5 24 Noroeste 41 Noroeste 0 -- -- 41
2019-08-07 03:00:00 25 27 Noroeste 41 Noroeste 0 -- -- 40
2019-08-07 02:00:00 25.5 25 Noroeste 39 Noroeste 0 -- -- 39
2019-08-07 01:00:00 26.6 30 Noroeste 37 Noroeste 0 -- -- 41
2019-08-07 00:00:00 27.1 26 Noroeste 39 Noroeste 0 -- -- 43
2019-08-06 23:00:00 28.4 23 Noroeste 35 Noroeste 0 -- -- 39
2019-08-06 22:00:00 30 20 Noroeste 32 Noroeste 0 -- -- 36
2019-08-06 21:00:00 32.5 5 Noroeste 24 Oeste 0 -- -- 34
2019-08-06 20:00:00 34.2 3 Sudeste 9 Este 0 -- -- 27
2019-08-06 19:00:00 35.4 5 Este 11 Nordeste 0 -- -- 26
2019-08-06 18:00:00 35.2 8 Nordeste 15 Sur 0 -- -- 31
2019-08-06 17:00:00 34.9 6 Sudeste 13 Sudeste 0 -- -- 29
2019-08-06 16:00:00 33.1 7 Sudeste 14 Sudeste 0 -- -- 31
2019-08-06 15:00:00 30.9 8 Este 15 Este 0 -- -- 36
2019-08-06 14:00:00 30.9 6 Sudeste 19 Sur 0 -- -- 38
2019-08-06 13:00:00 32.6 7 Sur 15 Sur 0 -- -- 42
2019-08-06 12:00:00 31.3 9 Sur 14 Sur 0 -- -- 45
2019-08-06 11:00:00 28.4 5 Nordeste 13 Este 0 -- -- 50
2019-08-06 10:00:00 26 12 Este 17 Este 0 -- -- 56
2019-08-06 09:00:00 26 13 Noroeste 22 Noroeste 0 -- -- 44
2019-08-06 08:00:00 23.2 11 Noroeste 18 Norte 0 -- -- 53
2019-08-06 07:00:00 22.2 4 Este 13 Noroeste 0 -- -- 60
2019-08-06 06:00:00 21.6 4 Norte 11 Nordeste 0 -- -- 55
2019-08-06 05:00:00 22.5 3 Sudoeste 7 Noroeste 0 -- -- 67
2019-08-06 04:00:00 23.9 3 Sudoeste 20 Norte 0 -- -- 67
2019-08-06 03:00:00 25.4 9 Norte 21 Norte 0 -- -- 48
2019-08-06 02:00:00 26 10 Norte 25 Noroeste 0 -- -- 49
2019-08-06 01:00:00 26.5 14 Noroeste 35 Noroeste 0 -- -- 46
2019-08-06 00:00:00 27.1 21 Noroeste 32 Noroeste 0 -- -- 45
2019-08-05 23:00:00 28 19 Noroeste 29 Noroeste 0 -- -- 43
2019-08-05 22:00:00 27.2 4 Sudoeste 10 Oeste 0 -- -- 46
2019-08-05 21:00:00 29.7 2 Sur 8 Sur 0 -- -- 49
2019-08-05 20:00:00 31.7 3 Este 12 Este 0 -- -- 43
2019-08-05 19:00:00 31.8 8 Sudeste 16 Sudeste 0 -- -- 41
2019-08-05 18:00:00 31.7 10 Sudeste 18 Sudeste 0 -- -- 41
2019-08-05 17:00:00 30.3 10 Sudeste 18 Sudeste 0 -- -- 46
2019-08-05 16:00:00 29.6 12 Sudeste 19 Sudeste 0 -- -- 49
2019-08-05 15:00:00 29.6 9 Este 21 Este 0 -- -- 49
2019-08-05 14:00:00 27.7 11 Este 21 Sudeste 0 -- -- 53
2019-08-05 13:00:00 28.9 4 Sudeste 25 Sur 0 -- -- 55
2019-08-05 12:00:00 30.6 6 Sur 14 Sur 0 -- -- 54
2019-08-05 11:00:00 28.8 6 Sur 11 Sur 0 -- -- 59
2019-08-05 10:00:00 27.4 5 Este 10 Sudeste 0 -- -- 62
2019-08-05 09:00:00 24 6 Norte 9 Noroeste 0 -- -- 62
2019-08-05 08:00:00 21.3 2 Noroeste 4 Noroeste 0 -- -- 78
2019-08-05 07:00:00 21.8 0 Calma 4 Noroeste 0 -- -- 75
2019-08-05 06:00:00 22.7 0 Calma 8 Noroeste 0 -- -- 67
2019-08-05 05:00:00 22.3 4 Noroeste 10 Noroeste 0 -- -- 69
2019-08-05 04:00:00 21.7 0 Calma 7 Nordeste 0 -- -- 79
2019-08-05 03:00:00 21.6 0 Calma 13 Este 0 -- -- 81
2019-08-05 02:00:00 22.3 12 Nordeste 21 Noroeste 0 -- -- 78
2019-08-05 01:00:00 27 13 Norte 21 Noroeste 0 -- -- 54
2019-08-05 00:00:00 25.5 5 Noroeste 9 Noroeste 0 -- -- 59
2019-08-04 23:00:00 25.6 3 Noroeste 6 Sudeste 0 -- -- 63
2019-08-04 22:00:00 29 0 Calma 5 Noroeste 0 -- -- 49
2019-08-04 21:00:00 31.5 3 Este 8 Este 0 -- -- 44
2019-08-04 20:00:00 32.4 5 Este 13 Nordeste 0 -- -- 43
2019-08-04 19:00:00 32.2 7 Este 15 Este 0 -- -- 42
2019-08-04 18:00:00 32.5 9 Este 15 Sudeste 0 -- -- 41
2019-08-04 17:00:00 32.7 7 Sudeste 16 Sudeste 0 -- -- 45
2019-08-04 16:00:00 32.3 9 Sudeste 16 Sur 0 -- -- 43
2019-08-04 15:00:00 31.7 10 Este 16 Sudeste 0 -- -- 47
2019-08-04 14:00:00 31.5 9 Sudeste 16 Sur 0 -- -- 43
2019-08-04 13:00:00 31.2 8 Este 16 Sudeste 0 -- -- 43
2019-08-04 12:00:00 31.3 7 Norte 17 Noroeste 0 -- -- 40
2019-08-04 11:00:00 28.7 8 Norte 22 Noroeste 0 -- -- 41
2019-08-04 10:00:00 26.4 7 Norte 26 Noroeste 0 -- -- 50
2019-08-04 09:00:00 23.5 14 Noroeste 29 Noroeste 0 -- -- 57
2019-08-04 08:00:00 21.8 13 Noroeste 24 Noroeste 0 -- -- 68
2019-08-04 07:00:00 22.2 14 Noroeste 21 Noroeste 0 -- -- 66
2019-08-04 06:00:00 21.8 13 Noroeste 19 Noroeste 0 -- -- 69
2019-08-04 05:00:00 21.7 0 Calma 5 Norte 0 -- -- 75
2019-08-04 04:00:00 22.3 3 Norte 8 Norte 0 -- -- 68
2019-08-04 03:00:00 22 4 Norte 6 Norte 0 -- -- 74
2019-08-04 02:00:00 22.1 4 Norte 6 Norte 0 -- -- 80
2019-08-04 01:00:00 22.3 4 Nordeste 10 Este 0 -- -- 78
2019-08-04 00:00:00 22.9 4 Este 12 Este 0 -- -- 78
2019-08-03 23:00:00 24.1 5 Noroeste 12 Noroeste 0 -- -- 65
2019-08-03 22:00:00 24.4 0 Calma 6 Nordeste 0 -- -- 70
2019-08-03 21:00:00 26.3 4 Nordeste 10 Sur 0 -- -- 64
2019-08-03 20:00:00 27.9 6 Sur 14 Sur 0 -- -- 59
2019-08-03 19:00:00 29.1 7 Sur 14 Sudeste 0 -- -- 54
2019-08-03 18:00:00 28.7 9 Sudeste 18 Sur 0 -- -- 54
2019-08-03 17:00:00 29 10 Sudeste 16 Sudeste 0 -- -- 51
2019-08-03 16:00:00 28.6 9 Sudeste 20 Sudeste 0 -- -- 56
2019-08-03 15:00:00 28.7 9 Sudeste 21 Sur 0 -- -- 56
2019-08-03 14:00:00 27.9 7 Sudeste 17 Sur 0 -- -- 59
2019-08-03 13:00:00 26.1 12 Sur 19 Sudeste 0 -- -- 63
2019-08-03 12:00:00 25.7 10 Sur 19 Sudeste 0 -- -- 62
2019-08-03 11:00:00 25.9 13 Sur 19 Sur 0 -- -- 64
2019-08-03 10:00:00 24.7 4 Este 8 Este 0 -- -- 65
2019-08-03 09:00:00 23.3 2 Este 5 Nordeste 0 -- -- 69
2019-08-03 08:00:00 20.7 4 Norte 6 Nordeste 0 -- -- 77
2019-08-03 07:00:00 20.6 3 Norte 8 Nordeste 0 -- -- 77
2019-08-03 06:00:00 20.2 3 Noroeste 5 Noroeste 0 -- -- 78
2019-08-03 05:00:00 20.5 4 Nordeste 7 Norte 0 -- -- 78
2019-08-03 04:00:00 20.4 4 Nordeste 8 Nordeste 0 -- -- 78
2019-08-03 03:00:00 20.5 6 Nordeste 10 Nordeste 0 -- -- 83
2019-08-03 02:00:00 20.8 4 Nordeste 7 Sudeste 0 -- -- 86
2019-08-03 01:00:00 21.3 2 Sur 6 Sudeste 0 -- -- 82
2019-08-03 00:00:00 22.2 0 Calma 5 Nordeste 0 -- -- 78
2019-08-02 23:00:00 23.5 5 Este 9 Sudeste 0 -- -- 72
2019-08-02 22:00:00 24.4 2 Norte 5 Noroeste 0 -- -- 68
2019-08-02 21:00:00 25.3 5 Este 10 Este 0 -- -- 65
2019-08-02 20:00:00 27.5 5 Este 12 Este 0 -- -- 60
2019-08-02 19:00:00 27 8 Este 15 Sudeste 0 -- -- 58
2019-08-02 18:00:00 27.4 8 Este 19 Este 0 -- -- 58
2019-08-02 17:00:00 27.2 11 Este 19 Sudeste 0 -- -- 59
2019-08-02 16:00:00 28.7 11 Este 17 Sudeste 0 -- -- 54
2019-08-02 15:00:00 28.9 10 Este 20 Sudeste 0 -- -- 53
2019-08-02 14:00:00 29.1 10 Este 19 Sudeste 0 -- -- 51
2019-08-02 13:00:00 28.4 6 Este 24 Sudeste 0 -- -- 55
2019-08-02 12:00:00 30.6 9 Este 18 Nordeste 0 -- -- 45
2019-08-02 11:00:00 28.9 15 Noroeste 32 Noroeste 0 -- -- 46
2019-08-02 10:00:00 26.3 12 Norte 24 Noroeste 0 -- -- 55
2019-08-02 09:00:00 23.3 19 Noroeste 29 Noroeste 0 -- -- 67
2019-08-02 08:00:00 21.3 8 Norte 15 Noroeste 0 -- -- 82
2019-08-02 07:00:00 21.1 3 Sur 6 Noroeste 0 -- -- 88
2019-08-02 06:00:00 21.6 0 Calma 9 Este 0 -- -- 84
2019-08-02 05:00:00 21.9 2 Sur 5 Nordeste 0 -- -- 85
2019-08-02 04:00:00 22 0 Calma 9 Norte 0 -- -- 84
2019-08-02 03:00:00 22.1 4 Norte 8 Norte 0 -- -- 84
2019-08-02 02:00:00 22.3 5 Nordeste 7 Nordeste 0 -- -- 83
2019-08-02 01:00:00 22.4 4 Norte 9 Este 0 -- -- 83
2019-08-02 00:00:00 23.5 4 Este 18 Noroeste 0 -- -- 79
2019-08-01 23:00:00 25.7 6 Nordeste 15 Oeste 0 -- -- 69
2019-08-01 22:00:00 26.3 10 Sudoeste 15 Oeste 0 -- -- 68
2019-08-01 21:00:00 27.5 9 Sudoeste 14 Sudoeste 0 -- -- 63
2019-08-01 20:00:00 29.2 8 Sudoeste 19 Sur 0 -- -- 59
2019-08-01 19:00:00 29.6 8 Sur 24 Sur 0 -- -- 59
2019-08-01 18:00:00 28.6 13 Sur 24 Sur 0 -- -- 62
2019-08-01 17:00:00 29.1 12 Sur 29 Sur 0 -- -- 59
2019-08-01 16:00:00 28.9 14 Sur 29 Sur 0 -- -- 60
2019-08-01 15:00:00 29.3 13 Sur 24 Sur 0 -- -- 58
2019-08-01 14:00:00 28.3 13 Sudeste 22 Sur 0 -- -- 60
2019-08-01 13:00:00 27.3 10 Sur 21 Sudeste 0 -- -- 64
2019-08-01 12:00:00 26.4 8 Sudeste 17 Sudeste 0 -- -- 66
2019-08-01 11:00:00 25 6 Sudeste 13 Sudeste 0 -- -- 74
2019-08-01 10:00:00 24.3 4 Sudeste 14 Este 0 -- -- 76
2019-08-01 09:00:00 23.9 10 Sudeste 18 Sudeste 0 -- -- 77
2019-08-01 08:00:00 23.7 9 Sudeste 22 Sudeste 0 -- -- 79
2019-08-01 07:00:00 23.7 12 Sudeste 23 Sudeste 0 -- -- 79
2019-08-01 06:00:00 23.7 13 Sudeste 26 Sudeste 0 -- -- 79
2019-08-01 05:00:00 23.3 13 Sudeste 23 Sudeste 0 -- -- 80
2019-08-01 04:00:00 23.5 7 Sudeste 19 Este 0 -- -- 79
2019-08-01 03:00:00 23.6 12 Sudeste 20 Sudeste 0 -- -- 79
2019-08-01 02:00:00 23.5 10 Sudeste 22 Sudeste 0 -- -- 80
2019-08-01 01:00:00 23.6 14 Sudeste 25 Sudeste 0 -- -- 80
2019-08-01 00:00:00 23.7 15 Sudeste 27 Sudeste 0 -- -- 79
2019-07-31 23:00:00 23.5 17 Sudeste 34 Este 0 -- -- 78
2019-07-31 22:00:00 24.3 16 Sudeste 27 Sudeste 0 -- -- 76
2019-07-31 21:00:00 24.5 18 Sudeste 30 Este 0 -- -- 75
2019-07-31 20:00:00 25.6 17 Sudeste 30 Este 0 -- -- 71
2019-07-31 19:00:00 26.2 20 Sudeste 30 Este 0 -- -- 69
2019-07-31 18:00:00 27.4 17 Sudeste 28 Sudeste 0 -- -- 63
2019-07-31 17:00:00 27.6 15 Sudeste 33 Sudeste 0 -- -- 61
2019-07-31 16:00:00 27.4 18 Sudeste 33 Este 0 -- -- 62
2019-07-31 15:00:00 26.5 21 Sudeste 36 Este 0 -- -- 66
2019-07-31 14:00:00 26.9 23 Sudeste 40 Este 0 -- -- 65
2019-07-31 13:00:00 26.2 26 Sudeste 42 Este 0 -- -- 69
2019-07-31 12:00:00 25.4 23 Sudeste 38 Sudeste 0 -- -- 73
2019-07-31 11:00:00 25.5 21 Sudeste 36 Este 0 -- -- 69
2019-07-31 10:00:00 23.7 19 Sudeste 40 Sudeste 0 -- -- 75
2019-07-31 09:00:00 24.2 18 Sudeste 33 Este 0 -- -- 69
2019-07-31 08:00:00 23.7 11 Sudeste 23 Sudeste 0 -- -- 65
2019-07-31 07:00:00 22.4 6 Este 17 Este 0 -- -- 81
2019-07-31 06:00:00 22.3 9 Sudeste 17 Sudeste 0 -- -- 81
2019-07-31 05:00:00 21.9 6 Este 28 Sudeste 0 -- -- 82
2019-07-31 04:00:00 21.9 10 Sudeste 21 Sudeste 0 -- -- 78
2019-07-31 03:00:00 22 12 Sudeste 25 Sudeste 0 -- -- 85
2019-07-31 02:00:00 23.6 9 Sudeste 27 Sudeste 0 -- -- 66
2019-07-31 01:00:00 22.8 4 Norte 11 Sudeste 0 -- -- 59
2019-07-31 00:00:00 24.7 4 Nordeste 9 Nordeste 0 -- -- 52
2019-07-30 23:00:00 25.1 5 Nordeste 8 Nordeste 0 -- -- 50
2019-07-30 22:00:00 26.6 0 Calma 7 Sur 0 -- -- 47
2019-07-30 21:00:00 29.6 4 Nordeste 10 Este 0 -- -- 39
2019-07-30 20:00:00 28.9 6 Este 13 Sudeste 0 -- -- 40
2019-07-30 19:00:00 29.3 7 Sudeste 13 Sudeste 0 -- -- 38
2019-07-30 18:00:00 29 8 Este 13 Este 0 -- -- 39
2019-07-30 17:00:00 28.6 8 Este 17 Sudeste 0 -- -- 43
2019-07-30 16:00:00 28.4 12 Sudeste 20 Este 0 -- -- 42
2019-07-30 15:00:00 28.3 11 Este 19 Sudeste 0 -- -- 42
2019-07-30 14:00:00 28 10 Este 15 Este 0 -- -- 45
2019-07-30 13:00:00 26.7 8 Este 14 Sur 0 -- -- 55
2019-07-30 12:00:00 29.6 9 Sur 16 Sur 0 -- -- 46
2019-07-30 11:00:00 30.6 4 Sur 10 Sudeste 0 -- -- 38
2019-07-30 10:00:00 28.9 3 Sudeste 7 Este 0 -- -- 38
2019-07-30 09:00:00 26.2 5 Noroeste 10 Noroeste 0 -- -- 43
2019-07-30 08:00:00 24 6 Noroeste 21 Noroeste 0 -- -- 46
2019-07-30 07:00:00 24.1 17 Noroeste 24 Noroeste 0 -- -- 46
2019-07-30 06:00:00 24.9 11 Noroeste 22 Noroeste 0 -- -- 45
2019-07-30 05:00:00 25.7 17 Noroeste 28 Noroeste 0 -- -- 44
2019-07-30 04:00:00 25.3 21 Noroeste 32 Noroeste 0 -- -- 44
2019-07-30 03:00:00 25.4 23 Noroeste 31 Noroeste 0 -- -- 46
2019-07-30 02:00:00 26.4 18 Noroeste 31 Noroeste 0 -- -- 45
2019-07-30 01:00:00 26.9 19 Noroeste 33 Noroeste 0 -- -- 46
2019-07-30 00:00:00 27.7 17 Noroeste 32 Norte 0 -- -- 45
2019-07-29 23:00:00 27.9 21 Noroeste 37 Noroeste 0 -- -- 47
2019-07-29 22:00:00 28.7 23 Noroeste 41 Noroeste 0 -- -- 45
2019-07-29 21:00:00 31.5 21 Noroeste 45 Noroeste 0 -- -- 39
2019-07-29 20:00:00 33.2 23 Noroeste 41 Oeste 0 -- -- 36
2019-07-29 19:00:00 34 22 Oeste 35 Oeste 0 -- -- 38
2019-07-29 18:00:00 33.6 24 Oeste 39 Oeste 0 -- -- 39
2019-07-29 17:00:00 34.2 18 Oeste 34 Sudoeste 0 -- -- 39
2019-07-29 16:00:00 33.5 17 Oeste 33 Oeste 0 -- -- 41
2019-07-29 15:00:00 32.6 13 Sudoeste 32 Oeste 0 -- -- 43
2019-07-29 14:00:00 31.3 17 Oeste 33 Oeste 0 -- -- 46
2019-07-29 13:00:00 29.7 17 Oeste 32 Noroeste 0 -- -- 51
2019-07-29 12:00:00 27.5 18 Noroeste 33 Noroeste 0 -- -- 56
2019-07-29 11:00:00 25.4 19 Noroeste 31 Noroeste 0 -- -- 62
2019-07-29 10:00:00 23.1 21 Noroeste 31 Noroeste 0 -- -- 68
2019-07-29 09:00:00 21.4 16 Noroeste 29 Noroeste 0 -- -- 73
2019-07-29 08:00:00 20.2 19 Noroeste 33 Noroeste 0 -- -- 76
2019-07-29 07:00:00 20.1 25 Noroeste 37 Noroeste 0 -- -- 75
2019-07-29 06:00:00 20.5 25 Noroeste 34 Noroeste 0 -- -- 73
2019-07-29 05:00:00 20.4 28 Noroeste 43 Norte 0 -- -- 75
2019-07-29 04:00:00 20.6 30 Noroeste 41 Noroeste 0 -- -- 76
2019-07-29 03:00:00 20.8 29 Noroeste 40 Noroeste 0 -- -- 76
2019-07-29 02:00:00 21.8 22 Noroeste 35 Noroeste 0 -- -- 71
2019-07-29 01:00:00 22.4 23 Noroeste 40 Noroeste 0 -- -- 68
2019-07-29 00:00:00 22.9 27 Noroeste 37 Noroeste 0 -- -- 66
2019-07-28 23:00:00 23.7 27 Noroeste 39 Noroeste 0 -- -- 63
2019-07-28 22:00:00 24.8 25 Noroeste 36 Noroeste 0 -- -- 59
2019-07-28 21:00:00 26.9 23 Noroeste 37 Oeste 0 -- -- 53
2019-07-28 20:00:00 28.7 23 Oeste 38 Oeste 0 -- -- 47
2019-07-28 19:00:00 29.6 23 Oeste 42 Oeste 0 -- -- 45
2019-07-28 18:00:00 29.7 24 Oeste 44 Oeste 0 -- -- 45
2019-07-28 17:00:00 29.9 24 Oeste 44 Oeste 0 -- -- 42
2019-07-28 16:00:00 30.1 22 Oeste 37 Sudoeste 0 -- -- 43
2019-07-28 15:00:00 29.6 20 Sudoeste 37 Sudoeste 0 -- -- 43
2019-07-28 14:00:00 28.4 14 Sudoeste 34 Oeste 0 -- -- 45
2019-07-28 13:00:00 27 18 Oeste 33 Sudoeste 0 -- -- 49
2019-07-28 12:00:00 25.7 20 Oeste 37 Oeste 0 -- -- 56
2019-07-28 11:00:00 24.1 24 Oeste 40 Oeste 0 -- -- 61
2019-07-28 10:00:00 22.7 26 Oeste 39 Norte 0 -- -- 66
2019-07-28 09:00:00 21.2 16 Norte 30 Noroeste 0 -- -- 71
2019-07-28 08:00:00 18.8 13 Noroeste 27 Noroeste 0 -- -- 81
2019-07-28 07:00:00 19.6 26 Noroeste 36 Noroeste 0 -- -- 77
2019-07-28 06:00:00 19.6 18 Noroeste 35 Noroeste 0 -- -- 80
2019-07-28 05:00:00 20.3 18 Noroeste 32 Norte 0 -- -- 79
2019-07-28 04:00:00 20.8 12 Noroeste 26 Oeste 0 -- -- 78
2019-07-28 03:00:00 21.4 17 Oeste 29 Oeste 0 -- -- 78
2019-07-28 02:00:00 21.8 17 Oeste 28 Oeste 0 -- -- 76
2019-07-28 01:00:00 22 18 Noroeste 29 Noroeste 0 -- -- 76
2019-07-28 00:00:00 22 18 Oeste 32 Oeste 0 -- -- 79
2019-07-27 23:00:00 22.4 18 Oeste 35 Oeste 0 -- -- 76
2019-07-26 12:00:00 -- -- -- -- -- -- -- -- --
2019-07-26 11:00:00 -- -- -- -- -- -- -- -- --
2019-07-26 10:00:00 -- -- -- -- -- -- -- -- --
2019-07-26 09:00:00 21.7 26 Noroeste 39 Noroeste 0 -- -- 81
2019-07-26 08:00:00 20.3 24 Noroeste 36 Noroeste 0 -- -- 84
2019-07-26 07:00:00 20.3 24 Noroeste 39 Noroeste 0 -- -- 83
2019-07-26 06:00:00 20.6 28 Noroeste 41 Noroeste 0 -- -- 80
2019-07-26 05:00:00 21 29 Noroeste 42 Noroeste 0 -- -- 77
2019-07-26 04:00:00 21.5 30 Noroeste 42 Noroeste 0 -- -- 75
2019-07-26 03:00:00 22 30 Noroeste 42 Noroeste 0 -- -- 74
2019-07-26 02:00:00 22.9 24 Noroeste 36 Noroeste 0 -- -- 75
2019-07-26 01:00:00 24 21 Noroeste 30 Noroeste 0 -- -- 69
2019-07-26 00:00:00 24.7 18 Noroeste 29 Noroeste 0 -- -- 68